Baton Rouge — 2CZZ7 — position and weather

sailwx.info

Track history (hours):
 
Tides and Currents Weather Stations Pressure Air Temp Water Temp Dewpoint Dewpoint Depression Visibility Wind Speed Wind Dir Waves Ship Positions

Baton Rouge

Last reported at 2015-Jul-02 16:32 UTC. Time now 2015-Jul-02 16:38 UTC.
Position N 43°43' E 007°21'.

Length 62 m; draft 3.7 m.

Type: Pleasure craft. MMSI: 235077185.

Date/timePositionNaut miles runAvg speedWind from/ knotsBaromVisibWave heightAir tempDewpointWater temp
2015-Jul-02 16:32N 43°43' E 007°21'0 0.0
2015-Jul-02 15:32N 43°43' E 007°21'0 0.0
2015-Jul-02 14:29N 43°43' E 007°21'0 0.0
2015-Jul-02 13:32N 43°43' E 007°21'0 0.0
2015-Jul-02 12:29N 43°43' E 007°21'0 0.0
2015-Jul-02 11:20N 43°43' E 007°21'2 2.7
2015-Jul-02 10:33N 43°42' E 007°24'2 0.2
2015-Jul-01 20:12N 43°44' E 007°26'0 0.0
2015-Jul-01 19:29N 43°44' E 007°26'0 0.0
2015-Jul-01 18:21N 43°44' E 007°26'0 0.0
2015-Jul-01 10:32N 43°44' E 007°26'0 0.0
2015-Jul-01 09:29N 43°44' E 007°26'0 0.0
2015-Jul-01 08:32N 43°44' E 007°26'0 0.0
2015-Jul-01 07:32N 43°44' E 007°26'0 0.0
2015-Jun-30 17:29N 43°44' E 007°26'0 0.0
2015-Jun-30 16:29N 43°44' E 007°26'0 0.0
2015-Jun-30 15:14N 43°44' E 007°26'0 0.0
2015-Jun-30 10:32N 43°44' E 007°26'0 0.0
2015-Jun-30 02:32N 43°44' E 007°26'0 0.0
2015-Jun-29 20:32N 43°44' E 007°26'0 0.0
2015-Jun-29 19:26N 43°44' E 007°26'0 0.0
2015-Jun-29 17:20N 43°44' E 007°26'0 0.0
2015-Jun-29 16:26N 43°44' E 007°26'0 0.0
2015-Jun-29 15:32N 43°44' E 007°26'0 0.0
2015-Jun-29 13:26N 43°44' E 007°26'0 0.0
2015-Jun-29 12:23N 43°44' E 007°26'0 0.0
2015-Jun-29 10:32N 43°44' E 007°26'0 0.0
2015-Jun-29 09:32N 43°44' E 007°26'0 0.0
2015-Jun-29 08:20N 43°44' E 007°26'0 0.0
2015-Jun-29 05:14N 43°44' E 007°26'0 0.0
2015-Jun-29 04:29N 43°44' E 007°26'0 0.0
2015-Jun-28 14:29N 43°44' E 007°26'7 6.3
2015-Jun-28 13:23N 43°42' E 007°35'1813.3
2015-Jun-28 12:04N 43°34' E 007°57'713.0
2015-Jun-28 11:33N 43°32' E 008°05'1313.1
2015-Jun-28 10:33N 43°26' E 008°21'1513.1
2015-Jun-28 09:25N 43°20' E 008°40'1313.3
2015-Jun-28 08:29N 43°15' E 008°56'1213.3
2015-Jun-28 07:34N 43°10' E 009°11'2013.3
2015-Jun-28 06:05N 43°00' E 009°35'11113.0
2015-Jun-27 21:33N 41°51' E 011°32'1413.7
2015-Jun-27 20:33N 41°43' E 011°48'1513.7
2015-Jun-27 19:30N 41°35' E 012°04'3013.0
2015-Jun-27 17:11N 41°18' E 012°37'1013.0
2015-Jun-27 16:25N 41°13' E 012°48'2812.8
2015-Jun-27 14:13N 40°57' E 013°19'912.9
2015-Jun-27 13:33N 40°52' E 013°28'1312.9
2015-Jun-27 12:33N 40°45' E 013°42'1212.3
2015-Jun-27 11:33N 40°41' E 013°57'1313.4
2015-Jun-27 10:33N 40°42' E 014°15'10 2.5
2015-Jun-27 06:25N 40°43' E 014°28'14 0.3
2015-Jun-25 10:23N 40°34' E 014°14'0 0.0
2015-Jun-25 09:23N 40°34' E 014°14'0 0.0
2015-Jun-25 07:29N 40°34' E 014°14'0 0.0
2015-Jun-25 06:26N 40°34' E 014°14'0 0.2
2015-Jun-25 05:33N 40°34' E 014°14'2 0.1
2015-Jun-24 16:07N 40°33' E 014°16'7 0.4
2015-Jun-23 23:27N 40°34' E 014°26'1112.6
2015-Jun-23 22:33N 40°37' E 014°12'1313.5
2015-Jun-23 21:33N 40°45' E 013°58'3 3.3
2015-Jun-23 20:32N 40°45' E 013°53'0 0.0
2015-Jun-23 19:32N 40°45' E 013°53'0 0.0
2015-Jun-23 19:05N 40°45' E 013°53'  
Track history (hours):
 
Tides and Currents Weather Stations Pressure Air Temp Water Temp Dewpoint Dewpoint Depression Visibility Wind Speed Wind Dir Waves Ship Positions

Baton Rouge

Last reported at 2015-Jul-02 16:32 UTC. Time now 2015-Jul-02 16:38 UTC.
Position N 43°43' E 007°21'.

Length 62 m; draft 3.7 m.

Type: Pleasure craft. MMSI: 235077185.

Date/timePositionNaut miles runAvg speedWind from/ knotsBaromVisibWave heightAir tempDewpointWater temp
2015-Jul-02 16:32N 43°43' E 007°21'0 0.0
2015-Jul-02 15:32N 43°43' E 007°21'0 0.0
2015-Jul-02 14:29N 43°43' E 007°21'0 0.0
2015-Jul-02 13:32N 43°43' E 007°21'0 0.0
2015-Jul-02 12:29N 43°43' E 007°21'0 0.0
2015-Jul-02 11:20N 43°43' E 007°21'2 2.7
2015-Jul-02 10:33N 43°42' E 007°24'2 0.2
2015-Jul-01 20:12N 43°44' E 007°26'0 0.0
2015-Jul-01 19:29N 43°44' E 007°26'0 0.0
2015-Jul-01 18:21N 43°44' E 007°26'0 0.0
2015-Jul-01 10:32N 43°44' E 007°26'0 0.0
2015-Jul-01 09:29N 43°44' E 007°26'0 0.0
2015-Jul-01 08:32N 43°44' E 007°26'0 0.0
2015-Jul-01 07:32N 43°44' E 007°26'0 0.0
2015-Jun-30 17:29N 43°44' E 007°26'0 0.0
2015-Jun-30 16:29N 43°44' E 007°26'0 0.0
2015-Jun-30 15:14N 43°44' E 007°26'0 0.0
2015-Jun-30 10:32N 43°44' E 007°26'0 0.0
2015-Jun-30 02:32N 43°44' E 007°26'0 0.0
2015-Jun-29 20:32N 43°44' E 007°26'0 0.0
2015-Jun-29 19:26N 43°44' E 007°26'0 0.0
2015-Jun-29 17:20N 43°44' E 007°26'0 0.0
2015-Jun-29 16:26N 43°44' E 007°26'0 0.0
2015-Jun-29 15:32N 43°44' E 007°26'0 0.0
2015-Jun-29 13:26N 43°44' E 007°26'0 0.0
2015-Jun-29 12:23N 43°44' E 007°26'0 0.0
2015-Jun-29 10:32N 43°44' E 007°26'0 0.0
2015-Jun-29 09:32N 43°44' E 007°26'0 0.0
2015-Jun-29 08:20N 43°44' E 007°26'0 0.0
2015-Jun-29 05:14N 43°44' E 007°26'0 0.0
2015-Jun-29 04:29N 43°44' E 007°26'0 0.0
2015-Jun-28 14:29N 43°44' E 007°26'7 6.3
2015-Jun-28 13:23N 43°42' E 007°35'1813.3
2015-Jun-28 12:04N 43°34' E 007°57'713.0
2015-Jun-28 11:33N 43°32' E 008°05'1313.1
2015-Jun-28 10:33N 43°26' E 008°21'1513.1
2015-Jun-28 09:25N 43°20' E 008°40'1313.3
2015-Jun-28 08:29N 43°15' E 008°56'1213.3
2015-Jun-28 07:34N 43°10' E 009°11'2013.3
2015-Jun-28 06:05N 43°00' E 009°35'11113.0
2015-Jun-27 21:33N 41°51' E 011°32'1413.7
2015-Jun-27 20:33N 41°43' E 011°48'1513.7
2015-Jun-27 19:30N 41°35' E 012°04'3013.0
2015-Jun-27 17:11N 41°18' E 012°37'1013.0
2015-Jun-27 16:25N 41°13' E 012°48'2812.8
2015-Jun-27 14:13N 40°57' E 013°19'912.9
2015-Jun-27 13:33N 40°52' E 013°28'1312.9
2015-Jun-27 12:33N 40°45' E 013°42'1212.3
2015-Jun-27 11:33N 40°41' E 013°57'1313.4
2015-Jun-27 10:33N 40°42' E 014°15'10 2.5
2015-Jun-27 06:25N 40°43' E 014°28'14 0.3
2015-Jun-25 10:23N 40°34' E 014°14'0 0.0
2015-Jun-25 09:23N 40°34' E 014°14'0 0.0
2015-Jun-25 07:29N 40°34' E 014°14'0 0.0
2015-Jun-25 06:26N 40°34' E 014°14'0 0.2
2015-Jun-25 05:33N 40°34' E 014°14'2 0.1
2015-Jun-24 16:07N 40°33' E 014°16'7 0.4
2015-Jun-23 23:27N 40°34' E 014°26'1112.6
2015-Jun-23 22:33N 40°37' E 014°12'1313.5
2015-Jun-23 21:33N 40°45' E 013°58'3 3.3
2015-Jun-23 20:32N 40°45' E 013°53'0 0.0
2015-Jun-23 19:32N 40°45' E 013°53'0 0.0
2015-Jun-23 19:05N 40°45' E 013°53'  

Dump ship's entire track history